• Join FlightAware (Why Join?)
  • Login
  • US Flag 
03:10AM EDT


 

Airport Tracker/Info


-or-


 

Live Flight TrackerFlight Track Log ✈ SWA862 ✈ 10-Apr-2013 ✈ KRDU - KBWI

Flight Track Log - Related Links

Times and Time Zones

All times are in EDT time to prevent confusion due to time zone crossing. See the SWA862 flight status page for this flight to view local times or setup timezone preferences in your user account.

Time Position Orientation Groundspeed Altitude Reporting Facility
EDT Latitude Longitude Course Direction KTS MPH feet Rate Location/Type
08:48PM 35.8497 -78.8183 224° Southwest 142 163 2,500  Level Washington Center
08:49PM 35.8642 -78.9033 282° West 204 235 8,000 3,480 Climbing Washington Center
08:50PM 35.9319 -78.8653 24° Northeast 178 205 11,300 2,820 Climbing Washington Center
08:51PM 36.0072 -78.7786 43° Northeast 261 300 13,700 3,240 Climbing Washington Center
08:52PM 36.0953 -78.6792 42° Northeast 325 374 17,900 3,660 Climbing Washington Center
08:53PM 36.1814 -78.5797 43° Northeast 363 418 21,100 2,460 Climbing Washington Center
08:54PM 36.2717 -78.4750 43° Northeast 402 463 22,900 900 Climbing Washington Center
08:55PM 36.3639 -78.3647 44° Northeast 437 503 23,000  Climbing Washington Center
08:56PM 36.4583 -78.2544 43° Northeast 451 519 23,000  Level Washington Center
08:57PM 36.5564 -78.1519 40° Northeast 457 526 23,000  Level Washington Center
08:58PM 36.6581 -78.0853 28° Northeast 419 482 23,000  Level Washington Center
08:59PM 36.7528 -78.0364 22° Northeast 394 453 23,000  Level Washington Center
09:00PM 36.8414 -77.9875 24° Northeast 364 419 23,000  Level Washington Center
09:01PM 36.9364 -77.9358 23° Northeast 357 411 23,000  Level Washington Center
09:02PM 37.0314 -77.8839 24° Northeast 357 411 23,000  Level Washington Center
09:03PM 37.1261 -77.8347 22° Northeast 357 411 23,000  Level Washington Center
09:04PM 37.2189 -77.7825 24° Northeast 357 411 23,000  Level Washington Center
09:05PM 37.3136 -77.7331 23° Northeast 363 418 23,000  Level Washington Center
09:06PM 37.4147 -77.6758 24° Northeast 376 433 23,000  Level Washington Center
09:07PM 37.5178 -77.6211 23° Northeast 387 445 23,000  Level Washington Center
09:08PM 37.6189 -77.5633 24° Northeast 387 445 23,000  Level Washington Center
09:09PM 37.7200 -77.5083 23° Northeast 387 445 23,000  Level Washington Center
09:10PM 37.8211 -77.4503 24° Northeast 392 451 23,000  Level Washington Center
09:11PM 37.9242 -77.3950 23° Northeast 392 451 23,000  Level Washington Center
09:12PM 38.0250 -77.3369 24° Northeast 392 451 23,000 -300 Level Washington Center
09:13PM 38.1153 -77.2886 23° Northeast 392 451 22,400 -1,800 Descending Washington Center
09:14PM 38.1403 -77.1494 77° East 334 384 19,500 -1,740 Descending Washington Center
09:15PM 38.0550 -77.1239 167° South 143 165 19,000 -300 Descending Washington Center
09:16PM 38.0100 -77.2178 239° Southwest 166 191 19,000  Level Washington Center
09:17PM 38.0128 -77.3206 272° West 222 255 19,000  Level Washington Center
09:18PM 38.0775 -77.3142 North 168 193 19,000  Level Washington Center
09:19PM 38.0875 -77.2011 84° East 120 138 19,000  Level Washington Center
09:20PM 38.1503 -77.1733 19° North 195 224 19,000  Level Washington Center
09:21PM 38.1322 -77.2681 256° West 121 139 19,000  Level Washington Center
09:22PM 38.0608 -77.3192 209° Southwest 181 208 19,000  Level Washington Center
09:23PM 37.9728 -77.3356 188° South 229 264 19,000  Level Washington Center
09:24PM 37.9281 -77.2636 128° Southeast 201 231 19,000  Level Washington Center
09:25PM 37.9831 -77.2067 39° Northeast 129 148 19,000  Level Washington Center
09:26PM 38.0456 -77.2003 North 160 184 19,000 -300 Level Washington Center
09:27PM 38.1167 -77.1939 North 261 300 18,500 -960 Descending Washington Center
09:28PM 38.2086 -77.1719 11° North 279 321 17,100 -1,320 Descending Washington Center
09:29PM 38.3069 -77.1528 North 312 359 15,900 -1,200 Descending Washington Center
09:30PM 38.3908 -77.1256 14° North 317 365 14,800 -1,320 Descending Washington Center
09:31PM 38.4564 -77.0447 44° Northeast 305 351 13,300 -1,500 Descending Washington Center
09:32PM 38.5242 -76.9636 43° Northeast 315 362 11,900 -1,260 Descending Washington Center
09:33PM 38.5894 -76.8878 42° Northeast 315 362 10,900 -1,080 Descending Washington Center
09:34PM 38.6550 -76.8092 43° Northeast 315 362 9,800 -1,080 Descending Washington Center
09:35PM 38.7161 -76.7278 46° Northeast 315 362 8,800 -1,200 Descending Washington Center
09:36PM 38.7567 -76.6300 62° Northeast 309 356 7,500 -1,200 Descending Washington Center
09:38PM 38.8500 -76.5167 43° Northeast 291 335 5,700 -1,020 Descending Potomac TRACON
09:39PM 38.9333 -76.5167 360° North 280 322 4,900 -1,020 Descending Potomac TRACON
09:40PM 39.0000 -76.5167 360° North 263 303 3,700 -1,200 Descending Potomac TRACON
09:41PM 39.0500 -76.5667 322° Northwest 224 258 2,600 -1,080 Descending Potomac TRACON
09:42PM 39.1000 -76.6000 333° Northwest 175 201 1,600 -1,020 Descending Potomac TRACON
09:44PM 39.1667 -76.6667 339° North  Level FlightAware Approximate